Jane — WCY3322 — position and weather

sailwx.info

Track history (hours):
 
Tides and Currents Weather Stations Pressure Air Temp Water Temp Dewpoint Dewpoint Depression Visibility Wind Speed Wind Dir Waves Ship Positions

Jane

Owner: DUARD EYEMARD TOWING LLC, CUT OFF, LA. More information available from US FCC via Universal Licensing System and Coast Guard Vessel Documentation Center.

Last reported at 2017-Oct-17 09:06 UTC. Time now 2017-Oct-17 20:18 UTC.
Position N 29°28' W 094°57'.

Length 21 m; draft 2 m.

Type: Tug. MMSI: 366748260.

Date/timePositionNaut miles runAvg speedWind from/ knotsBaromVisibWave heightAir tempDewpointWater temp
2017-Oct-17 09:06N 29°28' W 094°57'1 6.3
2017-Oct-17 09:00N 29°28' W 094°58'1 0.0
2017-Oct-16 00:52N 29°28' W 094°58'6 3.2
2017-Oct-15 23:03N 29°33' W 094°55'0 7.8
2017-Oct-15 23:00N 29°33' W 094°55'4 7.5
2017-Oct-15 22:31N 29°36' W 094°57'4 7.5
2017-Oct-15 22:00N 29°40' W 094°58'2 2.0
2017-Oct-15 20:56N 29°42' W 094°60'3 6.6
2017-Oct-15 20:29N 29°39' W 094°58'4 7.1
2017-Oct-15 19:58N 29°36' W 094°57'3 6.2
2017-Oct-15 19:30N 29°33' W 094°59'3 5.4
2017-Oct-15 19:00N 29°33' W 095°02'1 2.3
2017-Oct-15 18:31N 29°33' W 095°03'0 0.4
2017-Oct-15 18:01N 29°33' W 095°03'0 0.0
2017-Oct-15 17:31N 29°33' W 095°03'0 0.0
2017-Oct-15 17:01N 29°33' W 095°03'0 0.0
2017-Oct-15 16:31N 29°33' W 095°03'0 0.0
2017-Oct-15 16:01N 29°33' W 095°03'0 0.0
2017-Oct-15 15:30N 29°33' W 095°03'0 0.0
2017-Oct-15 15:00N 29°33' W 095°03'0 0.0
2017-Oct-15 14:01N 29°33' W 095°03'0 0.0
2017-Oct-15 13:30N 29°33' W 095°03'0 0.4
2017-Oct-15 13:01N 29°33' W 095°03'1 1.2
2017-Oct-15 12:31N 29°33' W 095°02'0 0.0
2017-Oct-15 12:01N 29°33' W 095°02'0 0.0
2017-Oct-15 11:31N 29°33' W 095°02'0 0.0
2017-Oct-15 11:01N 29°33' W 095°02'0 0.0
2017-Oct-15 10:31N 29°33' W 095°02'0 0.0
2017-Oct-15 10:01N 29°33' W 095°02'0 0.0
2017-Oct-15 09:31N 29°33' W 095°02'0 0.0
2017-Oct-15 09:01N 29°33' W 095°02'0 0.0
2017-Oct-15 08:31N 29°33' W 095°02'0 0.0
2017-Oct-15 08:01N 29°33' W 095°02'0 0.0
2017-Oct-15 07:31N 29°33' W 095°02'0 0.0
2017-Oct-15 07:01N 29°33' W 095°02'0 0.0
2017-Oct-15 06:30N 29°33' W 095°02'0 0.0
2017-Oct-15 06:01N 29°33' W 095°02'0 0.0
2017-Oct-15 05:30N 29°33' W 095°02'0 0.0
2017-Oct-15 05:00N 29°33' W 095°02'0 0.0
2017-Oct-15 04:31N 29°33' W 095°02'0 0.0
2017-Oct-15 04:00N 29°33' W 095°02'0 0.0
2017-Oct-15 03:31N 29°33' W 095°02'0 0.0
2017-Oct-15 03:01N 29°33' W 095°02'0 0.0
2017-Oct-15 02:30N 29°33' W 095°02'0 0.0
2017-Oct-15 02:01N 29°33' W 095°02'0 0.0
2017-Oct-15 01:31N 29°33' W 095°02'0 0.0
2017-Oct-15 01:01N 29°33' W 095°02'0 0.0
2017-Oct-15 00:30N 29°33' W 095°02'0 0.0
2017-Oct-15 00:00N 29°33' W 095°02'0 0.0
2017-Oct-14 23:31N 29°33' W 095°02'0 0.0
2017-Oct-14 23:01N 29°33' W 095°02'0 0.0
2017-Oct-14 22:30N 29°33' W 095°02'0 0.0
2017-Oct-14 22:01N 29°33' W 095°02'0 0.0
2017-Oct-14 21:31N 29°33' W 095°02'0 0.0
2017-Oct-14 21:01N 29°33' W 095°02'0 0.0
2017-Oct-14 20:30N 29°33' W 095°02'0 0.0
2017-Oct-14 20:01N 29°33' W 095°02'0 0.0
2017-Oct-14 19:30N 29°33' W 095°02'0 0.0
2017-Oct-14 19:01N 29°33' W 095°02'0 0.0
2017-Oct-14 18:31N 29°33' W 095°02'0 0.0
2017-Oct-14 18:00N 29°33' W 095°02'0 0.0
2017-Oct-14 17:30N 29°33' W 095°02'0 0.0
2017-Oct-14 17:00N 29°33' W 095°02'0 0.0
2017-Oct-14 16:30N 29°33' W 095°02'0 0.0
2017-Oct-14 16:01N 29°33' W 095°02'0 0.0
2017-Oct-14 15:30N 29°33' W 095°02'0 0.0
2017-Oct-14 15:00N 29°33' W 095°02'0 0.0
2017-Oct-14 14:31N 29°33' W 095°02'0 0.0
2017-Oct-14 14:00N 29°33' W 095°02'0 0.0
2017-Oct-14 13:31N 29°33' W 095°02'0 0.0
2017-Oct-14 13:00N 29°33' W 095°02'0 0.0
2017-Oct-14 12:31N 29°33' W 095°02'0 0.0
2017-Oct-14 12:01N 29°33' W 095°02'0 0.0
2017-Oct-14 11:30N 29°33' W 095°02'0 0.0
2017-Oct-14 11:00N 29°33' W 095°02'0 0.0
2017-Oct-14 10:30N 29°33' W 095°02'0 0.0
2017-Oct-14 10:01N 29°33' W 095°02'0 0.0
2017-Oct-14 09:30N 29°33' W 095°02'0 0.0
2017-Oct-14 09:01N 29°33' W 095°02'0 0.0
2017-Oct-14 08:31N 29°33' W 095°02'0 0.0
2017-Oct-14 08:01N 29°33' W 095°02'0 0.0
2017-Oct-14 07:30N 29°33' W 095°02'0 0.0
2017-Oct-14 07:01N 29°33' W 095°02'0 0.0
2017-Oct-14 06:31N 29°33' W 095°02'0 0.0
2017-Oct-14 06:00N 29°33' W 095°02'0 0.0
2017-Oct-14 05:31N 29°33' W 095°02'0 0.0
2017-Oct-14 05:01N 29°33' W 095°02'0 0.0
2017-Oct-14 04:31N 29°33' W 095°02'0 0.0
2017-Oct-14 04:01N 29°33' W 095°02'0 0.0
2017-Oct-14 03:31N 29°33' W 095°02'0 0.0
2017-Oct-14 03:00N 29°33' W 095°02'0 0.0
2017-Oct-14 02:31N 29°33' W 095°02'0 0.0
2017-Oct-14 02:01N 29°33' W 095°02'0 0.0
2017-Oct-14 01:29N 29°33' W 095°02'0 0.0
2017-Oct-14 01:00N 29°33' W 095°02'0 0.0
2017-Oct-14 00:30N 29°33' W 095°02'0 0.1
2017-Oct-13 23:59N 29°33' W 095°02'0 0.0
2017-Oct-13 23:30N 29°33' W 095°02'0 0.0
2017-Oct-13 23:00N 29°33' W 095°02'0 0.0
2017-Oct-13 22:30N 29°33' W 095°02'0 0.0
2017-Oct-13 22:00N 29°33' W 095°02'0 0.0
2017-Oct-13 21:30N 29°33' W 095°02'0 0.0
2017-Oct-13 21:00N 29°33' W 095°02'0 0.0
2017-Oct-13 20:30N 29°33' W 095°02'0 0.0
2017-Oct-13 20:00N 29°33' W 095°02'0 0.0
2017-Oct-13 19:30N 29°33' W 095°02'0 0.0
2017-Oct-13 19:00N 29°33' W 095°02'0 0.0
2017-Oct-13 18:30N 29°33' W 095°02'0 0.0
2017-Oct-13 18:00N 29°33' W 095°02'0 0.8
2017-Oct-13 17:30N 29°33' W 095°03'1 2.5
2017-Oct-13 17:00N 29°33' W 095°01'3 5.8
2017-Oct-13 16:30N 29°33' W 094°58'3 5.7
2017-Oct-13 15:58N 29°32' W 094°54'5 3.1
2017-Oct-13 14:25N 29°28' W 094°57'1 2.4
2017-Oct-13 14:00N 29°28' W 094°58'0 0.0
2017-Oct-13 02:04N 29°28' W 094°58'0 3.0
2017-Oct-13 01:57N 29°28' W 094°58'5 3.4
2017-Oct-13 00:22N 29°32' W 094°54'2 6.5
2017-Oct-13 00:00N 29°33' W 094°57'3 6.3
2017-Oct-12 23:30N 29°33' W 095°00'1 3.0
2017-Oct-12 23:00N 29°33' W 095°02'0 0.0
2017-Oct-12 22:30N 29°33' W 095°02'0 0.0
2017-Oct-12 22:00N 29°33' W 095°02'0 0.0
2017-Oct-12 21:30N 29°33' W 095°02'0 0.0
2017-Oct-12 21:00N 29°33' W 095°02'0 0.0
2017-Oct-12 20:30N 29°33' W 095°02'0 0.0
2017-Oct-12 20:00N 29°33' W 095°02'0 0.0
2017-Oct-12 19:30N 29°33' W 095°02'0 0.0
2017-Oct-12 19:00N 29°33' W 095°02'0 0.0
2017-Oct-12 18:30N 29°33' W 095°02'0 0.0
2017-Oct-12 18:00N 29°33' W 095°02'0 0.0
2017-Oct-12 17:30N 29°33' W 095°02'0 0.0
2017-Oct-12 17:00N 29°33' W 095°02'0 0.0
2017-Oct-12 16:30N 29°33' W 095°02'0 0.0
2017-Oct-12 16:00N 29°33' W 095°02'0 0.0
2017-Oct-12 15:30N 29°33' W 095°02'0 0.0
2017-Oct-12 15:00N 29°33' W 095°02'0 0.0
2017-Oct-12 14:30N 29°33' W 095°02'0 0.0
2017-Oct-12 14:00N 29°33' W 095°02'0 0.0
2017-Oct-12 13:30N 29°33' W 095°02'0 0.0
2017-Oct-12 13:00N 29°33' W 095°02'0 0.0
2017-Oct-12 12:30N 29°33' W 095°02'0 0.0
2017-Oct-12 12:00N 29°33' W 095°02'0 0.0
2017-Oct-12 11:30N 29°33' W 095°02'0 0.0
2017-Oct-12 11:00N 29°33' W 095°02'0 0.0
2017-Oct-12 10:30N 29°33' W 095°02'0 0.0
2017-Oct-12 10:00N 29°33' W 095°02'0 0.0
2017-Oct-12 09:30N 29°33' W 095°02'0 0.0
2017-Oct-12 09:00N 29°33' W 095°02'0 0.0
2017-Oct-12 08:30N 29°33' W 095°02'0 0.0
2017-Oct-12 08:00N 29°33' W 095°02'0 0.0
2017-Oct-12 07:30N 29°33' W 095°02'0 0.0
2017-Oct-12 07:00N 29°33' W 095°02'0 0.0
2017-Oct-12 06:30N 29°33' W 095°02'0 0.0
2017-Oct-12 06:00N 29°33' W 095°02'0 0.0
2017-Oct-12 05:30N 29°33' W 095°02'0 0.0
2017-Oct-12 05:00N 29°33' W 095°02'0 0.0
2017-Oct-12 04:30N 29°33' W 095°02'0 0.0
2017-Oct-12 04:00N 29°33' W 095°02'0 0.0
2017-Oct-12 03:30N 29°33' W 095°02'0 0.0
2017-Oct-12 03:00N 29°33' W 095°02'0 0.0
2017-Oct-12 02:30N 29°33' W 095°02'0 0.0
2017-Oct-12 02:00N 29°33' W 095°02'0 0.0
2017-Oct-12 01:30N 29°33' W 095°02'0 0.0
2017-Oct-12 01:00N 29°33' W 095°02'0 0.0
2017-Oct-12 00:30N 29°33' W 095°02'0 0.0
2017-Oct-12 00:00N 29°33' W 095°02'0 0.0
2017-Oct-11 23:30N 29°33' W 095°02'0 0.0
2017-Oct-11 23:00N 29°33' W 095°02'0 0.0
2017-Oct-11 22:30N 29°33' W 095°02'0 0.5
2017-Oct-11 22:00N 29°33' W 095°02'1 2.3
2017-Oct-11 21:30N 29°33' W 095°00'2 4.0
2017-Oct-11 21:00N 29°33' W 094°58'2 4.6
2017-Oct-11 20:30N 29°32' W 094°56'5 2.0
2017-Oct-11 18:10N 29°28' W 094°57'1 3.5
2017-Oct-11 18:00N 29°28' W 094°57'1 0.6
2017-Oct-11 16:50N 29°28' W 094°58'0 0.0
2017-Oct-10 20:47N 29°28' W 094°58'0 0.0
2017-Oct-10 19:44N 29°28' W 094°58'0 0.0
2017-Oct-10 19:30N 29°28' W 094°58'0 0.0
2017-Oct-10 18:47N 29°28' W 094°58'0 0.0
2017-Oct-10 18:20N 29°28' W 094°58'0 0.1
2017-Oct-10 17:57N 29°28' W 094°58'0 0.1
2017-Oct-10 17:29N 29°28' W 094°58'0 0.0
2017-Oct-10 17:00N 29°28' W 094°58'0 0.0
2017-Oct-10 16:30N 29°28' W 094°58'0 0.0
2017-Oct-10 15:58N 29°28' W 094°58'0 0.0
2017-Oct-10 15:26N 29°28' W 094°58'0 0.0
2017-Oct-10 11:50N 29°28' W 094°58'0 0.0
2017-Oct-10 11:29N 29°28' W 094°58'0 0.0
2017-Oct-10 01:13N 29°28' W 094°58'0 0.0
2017-Oct-10 00:58N 29°28' W 094°58'0 0.0
2017-Oct-10 00:27N 29°28' W 094°58'0 0.0
2017-Oct-09 23:55N 29°28' W 094°58'0 1.2
2017-Oct-09 23:30N 29°28' W 094°58'5 3.3
2017-Oct-09 21:50N 29°32' W 094°54'2 6.3
2017-Oct-09 21:30N 29°33' W 094°57'3 6.3
2017-Oct-09 21:00N 29°33' W 095°00'2 4.1
2017-Oct-09 20:30N 29°33' W 095°03'2 3.2
2017-Oct-09 20:00N 29°33' W 095°04'0 0.9
2017-Oct-09 19:30N 29°33' W 095°04'0 0.0
2017-Oct-09 19:00N 29°33' W 095°04'0 0.0
2017-Oct-09 18:30N 29°33' W 095°04'0 0.0
2017-Oct-09 18:00N 29°33' W 095°04'0 0.0
2017-Oct-09 17:30N 29°33' W 095°04'0 0.0
2017-Oct-09 17:00N 29°33' W 095°04'0 0.0
2017-Oct-09 16:30N 29°33' W 095°04'0 0.0
2017-Oct-09 16:00N 29°33' W 095°04'0 0.0
2017-Oct-09 15:30N 29°33' W 095°04'0 0.0
2017-Oct-09 15:00N 29°33' W 095°04'0 0.0
2017-Oct-09 14:30N 29°33' W 095°04'0 0.1
2017-Oct-09 14:00N 29°33' W 095°04'1 1.7
2017-Oct-09 13:30N 29°33' W 095°03'2 4.1
2017-Oct-09 13:00N 29°33' W 095°01'3 6.5
2017-Oct-09 12:30N 29°33' W 094°57'5 2.4
2017-Oct-09 10:33N 29°28' W 094°57'0 5.9
2017-Oct-09 10:30N 29°28' W 094°57'1 1.8
2017-Oct-09 10:00N 29°28' W 094°58'0 0.0
2017-Oct-09 09:30N 29°28' W 094°58'0 0.0
2017-Oct-09 09:00N 29°28' W 094°58'0 0.0
2017-Oct-09 08:30N 29°28' W 094°58'0 0.0
2017-Oct-09 08:00N 29°28' W 094°58'0 0.0
2017-Oct-09 07:30N 29°28' W 094°58'0 0.0
2017-Oct-09 07:00N 29°28' W 094°58'0 0.0
2017-Oct-09 06:30N 29°28' W 094°58'0 0.0
2017-Oct-09 06:00N 29°28' W 094°58'0 0.0
2017-Oct-09 05:30N 29°28' W 094°58'0 0.0
2017-Oct-09 05:00N 29°28' W 094°58'0 0.0
2017-Oct-09 04:30N 29°28' W 094°58'0 0.0
2017-Oct-09 04:00N 29°28' W 094°58'0 0.0
2017-Oct-09 03:30N 29°28' W 094°58'0 0.0
2017-Oct-09 03:00N 29°28' W 094°58'0 0.0
2017-Oct-09 02:30N 29°28' W 094°58'0 0.0
2017-Oct-09 02:00N 29°28' W 094°58'0 0.0
2017-Oct-09 01:30N 29°28' W 094°58'0 0.0
2017-Oct-09 01:00N 29°28' W 094°58'0 0.0
2017-Oct-09 00:30N 29°28' W 094°58'0 0.0
2017-Oct-09 00:00N 29°28' W 094°58'0 0.0
2017-Oct-08 23:30N 29°28' W 094°58'0 0.0
2017-Oct-08 23:00N 29°28' W 094°58'0 0.0
2017-Oct-08 22:30N 29°28' W 094°58'0 0.0
2017-Oct-08 22:00N 29°28' W 094°58'0 0.0
2017-Oct-08 21:29N 29°28' W 094°58'0 0.0
2017-Oct-08 21:00N 29°28' W 094°58'0 0.0
2017-Oct-08 20:30N 29°28' W 094°58'0 0.0
2017-Oct-08 20:00N 29°28' W 094°58'0 0.0
2017-Oct-08 19:30N 29°28' W 094°58'0 0.0
2017-Oct-08 19:00N 29°28' W 094°58'0 0.0
2017-Oct-08 18:30N 29°28' W 094°58'0 0.0
2017-Oct-08 18:00N 29°28' W 094°58'0 0.0
2017-Oct-08 17:30N 29°28' W 094°58'0 0.0
2017-Oct-08 17:00N 29°28' W 094°58'0 0.0
2017-Oct-08 16:30N 29°28' W 094°58'0 0.0
2017-Oct-08 16:00N 29°28' W 094°58'0 0.0
2017-Oct-08 15:30N 29°28' W 094°58'0 0.0
2017-Oct-08 15:00N 29°28' W 094°58'0 0.0
2017-Oct-08 14:30N 29°28' W 094°58'0 0.0
2017-Oct-08 14:00N 29°28' W 094°58'0 0.0
2017-Oct-08 13:30N 29°28' W 094°58'0 0.0
2017-Oct-08 13:00N 29°28' W 094°58'0 0.0
2017-Oct-08 12:30N 29°28' W 094°58'0 0.0
2017-Oct-08 12:00N 29°28' W 094°58'0 0.0
2017-Oct-08 11:30N 29°28' W 094°58'0 0.0
2017-Oct-08 11:00N 29°28' W 094°58'0 0.0
2017-Oct-08 10:30N 29°28' W 094°58'0 0.0
2017-Oct-08 10:00N 29°28' W 094°58'0 0.0
2017-Oct-08 09:30N 29°28' W 094°58'0 0.0
2017-Oct-08 09:00N 29°28' W 094°58'0 0.0
2017-Oct-08 08:30N 29°28' W 094°58'0 0.0
2017-Oct-08 08:00N 29°28' W 094°58'0 0.0
2017-Oct-08 07:30N 29°28' W 094°58'0 0.0
2017-Oct-08 07:00N 29°28' W 094°58'0 0.0
2017-Oct-08 06:30N 29°28' W 094°58'0 0.0
2017-Oct-08 06:00N 29°28' W 094°58'0 0.0
2017-Oct-08 05:30N 29°28' W 094°58'0 0.0
2017-Oct-08 05:00N 29°28' W 094°58'0 0.0
2017-Oct-08 04:30N 29°28' W 094°58'0 0.0
2017-Oct-08 04:00N 29°28' W 094°58'0 0.0
2017-Oct-08 03:30N 29°28' W 094°58'0 0.0
2017-Oct-08 03:00N 29°28' W 094°58'0 0.0
2017-Oct-08 02:30N 29°28' W 094°58'0 0.0
2017-Oct-08 02:00N 29°28' W 094°58'0 0.0
2017-Oct-08 01:30N 29°28' W 094°58'0 0.0
2017-Oct-08 01:00N 29°28' W 094°58'0 0.0
2017-Oct-08 00:30N 29°28' W 094°58'0 0.0
2017-Oct-08 00:00N 29°28' W 094°58'0 0.0
2017-Oct-07 23:30N 29°28' W 094°58'0 0.0
2017-Oct-07 23:00N 29°28' W 094°58'0 0.0
2017-Oct-07 22:30N 29°28' W 094°58'0 0.0
2017-Oct-07 22:00N 29°28' W 094°58'0 0.0
2017-Oct-07 21:30N 29°28' W 094°58'0 0.0
2017-Oct-07 21:00N 29°28' W 094°58'0 0.0
2017-Oct-07 09:42N 29°28' W 094°58'0 0.0
2017-Oct-07 09:18N 29°28' W 094°58'  
Track history (hours):
 
Tides and Currents Weather Stations Pressure Air Temp Water Temp Dewpoint Dewpoint Depression Visibility Wind Speed Wind Dir Waves Ship Positions

Jane

Owner: DUARD EYEMARD TOWING LLC, CUT OFF, LA. More information available from US FCC via Universal Licensing System and Coast Guard Vessel Documentation Center.

Last reported at 2017-Oct-17 09:06 UTC. Time now 2017-Oct-17 20:18 UTC.
Position N 29°28' W 094°57'.

Length 21 m; draft 2 m.

Type: Tug. MMSI: 366748260.

Date/timePositionNaut miles runAvg speedWind from/ knotsBaromVisibWave heightAir tempDewpointWater temp
2017-Oct-17 09:06N 29°28' W 094°57'1 6.3
2017-Oct-17 09:00N 29°28' W 094°58'1 0.0
2017-Oct-16 00:52N 29°28' W 094°58'6 3.2
2017-Oct-15 23:03N 29°33' W 094°55'0 7.8
2017-Oct-15 23:00N 29°33' W 094°55'4 7.5
2017-Oct-15 22:31N 29°36' W 094°57'4 7.5
2017-Oct-15 22:00N 29°40' W 094°58'2 2.0
2017-Oct-15 20:56N 29°42' W 094°60'3 6.6
2017-Oct-15 20:29N 29°39' W 094°58'4 7.1
2017-Oct-15 19:58N 29°36' W 094°57'3 6.2
2017-Oct-15 19:30N 29°33' W 094°59'3 5.4
2017-Oct-15 19:00N 29°33' W 095°02'1 2.3
2017-Oct-15 18:31N 29°33' W 095°03'0 0.4
2017-Oct-15 18:01N 29°33' W 095°03'0 0.0
2017-Oct-15 17:31N 29°33' W 095°03'0 0.0
2017-Oct-15 17:01N 29°33' W 095°03'0 0.0
2017-Oct-15 16:31N 29°33' W 095°03'0 0.0
2017-Oct-15 16:01N 29°33' W 095°03'0 0.0
2017-Oct-15 15:30N 29°33' W 095°03'0 0.0
2017-Oct-15 15:00N 29°33' W 095°03'0 0.0
2017-Oct-15 14:01N 29°33' W 095°03'0 0.0
2017-Oct-15 13:30N 29°33' W 095°03'0 0.4
2017-Oct-15 13:01N 29°33' W 095°03'1 1.2
2017-Oct-15 12:31N 29°33' W 095°02'0 0.0
2017-Oct-15 12:01N 29°33' W 095°02'0 0.0
2017-Oct-15 11:31N 29°33' W 095°02'0 0.0
2017-Oct-15 11:01N 29°33' W 095°02'0 0.0
2017-Oct-15 10:31N 29°33' W 095°02'0 0.0
2017-Oct-15 10:01N 29°33' W 095°02'0 0.0
2017-Oct-15 09:31N 29°33' W 095°02'0 0.0
2017-Oct-15 09:01N 29°33' W 095°02'0 0.0
2017-Oct-15 08:31N 29°33' W 095°02'0 0.0
2017-Oct-15 08:01N 29°33' W 095°02'0 0.0
2017-Oct-15 07:31N 29°33' W 095°02'0 0.0
2017-Oct-15 07:01N 29°33' W 095°02'0 0.0
2017-Oct-15 06:30N 29°33' W 095°02'0 0.0
2017-Oct-15 06:01N 29°33' W 095°02'0 0.0
2017-Oct-15 05:30N 29°33' W 095°02'0 0.0
2017-Oct-15 05:00N 29°33' W 095°02'0 0.0
2017-Oct-15 04:31N 29°33' W 095°02'0 0.0
2017-Oct-15 04:00N 29°33' W 095°02'0 0.0
2017-Oct-15 03:31N 29°33' W 095°02'0 0.0
2017-Oct-15 03:01N 29°33' W 095°02'0 0.0
2017-Oct-15 02:30N 29°33' W 095°02'0 0.0
2017-Oct-15 02:01N 29°33' W 095°02'0 0.0
2017-Oct-15 01:31N 29°33' W 095°02'0 0.0
2017-Oct-15 01:01N 29°33' W 095°02'0 0.0
2017-Oct-15 00:30N 29°33' W 095°02'0 0.0
2017-Oct-15 00:00N 29°33' W 095°02'0 0.0
2017-Oct-14 23:31N 29°33' W 095°02'0 0.0
2017-Oct-14 23:01N 29°33' W 095°02'0 0.0
2017-Oct-14 22:30N 29°33' W 095°02'0 0.0
2017-Oct-14 22:01N 29°33' W 095°02'0 0.0
2017-Oct-14 21:31N 29°33' W 095°02'0 0.0
2017-Oct-14 21:01N 29°33' W 095°02'0 0.0
2017-Oct-14 20:30N 29°33' W 095°02'0 0.0
2017-Oct-14 20:01N 29°33' W 095°02'0 0.0
2017-Oct-14 19:30N 29°33' W 095°02'0 0.0
2017-Oct-14 19:01N 29°33' W 095°02'0 0.0
2017-Oct-14 18:31N 29°33' W 095°02'0 0.0
2017-Oct-14 18:00N 29°33' W 095°02'0 0.0
2017-Oct-14 17:30N 29°33' W 095°02'0 0.0
2017-Oct-14 17:00N 29°33' W 095°02'0 0.0
2017-Oct-14 16:30N 29°33' W 095°02'0 0.0
2017-Oct-14 16:01N 29°33' W 095°02'0 0.0
2017-Oct-14 15:30N 29°33' W 095°02'0 0.0
2017-Oct-14 15:00N 29°33' W 095°02'0 0.0
2017-Oct-14 14:31N 29°33' W 095°02'0 0.0
2017-Oct-14 14:00N 29°33' W 095°02'0 0.0
2017-Oct-14 13:31N 29°33' W 095°02'0 0.0
2017-Oct-14 13:00N 29°33' W 095°02'0 0.0
2017-Oct-14 12:31N 29°33' W 095°02'0 0.0
2017-Oct-14 12:01N 29°33' W 095°02'0 0.0
2017-Oct-14 11:30N 29°33' W 095°02'0 0.0
2017-Oct-14 11:00N 29°33' W 095°02'0 0.0
2017-Oct-14 10:30N 29°33' W 095°02'0 0.0
2017-Oct-14 10:01N 29°33' W 095°02'0 0.0
2017-Oct-14 09:30N 29°33' W 095°02'0 0.0
2017-Oct-14 09:01N 29°33' W 095°02'0 0.0
2017-Oct-14 08:31N 29°33' W 095°02'0 0.0
2017-Oct-14 08:01N 29°33' W 095°02'0 0.0
2017-Oct-14 07:30N 29°33' W 095°02'0 0.0
2017-Oct-14 07:01N 29°33' W 095°02'0 0.0
2017-Oct-14 06:31N 29°33' W 095°02'0 0.0
2017-Oct-14 06:00N 29°33' W 095°02'0 0.0
2017-Oct-14 05:31N 29°33' W 095°02'0 0.0
2017-Oct-14 05:01N 29°33' W 095°02'0 0.0
2017-Oct-14 04:31N 29°33' W 095°02'0 0.0
2017-Oct-14 04:01N 29°33' W 095°02'0 0.0
2017-Oct-14 03:31N 29°33' W 095°02'0 0.0
2017-Oct-14 03:00N 29°33' W 095°02'0 0.0
2017-Oct-14 02:31N 29°33' W 095°02'0 0.0
2017-Oct-14 02:01N 29°33' W 095°02'0 0.0
2017-Oct-14 01:29N 29°33' W 095°02'0 0.0
2017-Oct-14 01:00N 29°33' W 095°02'0 0.0
2017-Oct-14 00:30N 29°33' W 095°02'0 0.1
2017-Oct-13 23:59N 29°33' W 095°02'0 0.0
2017-Oct-13 23:30N 29°33' W 095°02'0 0.0
2017-Oct-13 23:00N 29°33' W 095°02'0 0.0
2017-Oct-13 22:30N 29°33' W 095°02'0 0.0
2017-Oct-13 22:00N 29°33' W 095°02'0 0.0
2017-Oct-13 21:30N 29°33' W 095°02'0 0.0
2017-Oct-13 21:00N 29°33' W 095°02'0 0.0
2017-Oct-13 20:30N 29°33' W 095°02'0 0.0
2017-Oct-13 20:00N 29°33' W 095°02'0 0.0
2017-Oct-13 19:30N 29°33' W 095°02'0 0.0
2017-Oct-13 19:00N 29°33' W 095°02'0 0.0
2017-Oct-13 18:30N 29°33' W 095°02'0 0.0
2017-Oct-13 18:00N 29°33' W 095°02'0 0.8
2017-Oct-13 17:30N 29°33' W 095°03'1 2.5
2017-Oct-13 17:00N 29°33' W 095°01'3 5.8
2017-Oct-13 16:30N 29°33' W 094°58'3 5.7
2017-Oct-13 15:58N 29°32' W 094°54'5 3.1
2017-Oct-13 14:25N 29°28' W 094°57'1 2.4
2017-Oct-13 14:00N 29°28' W 094°58'0 0.0
2017-Oct-13 02:04N 29°28' W 094°58'0 3.0
2017-Oct-13 01:57N 29°28' W 094°58'5 3.4
2017-Oct-13 00:22N 29°32' W 094°54'2 6.5
2017-Oct-13 00:00N 29°33' W 094°57'3 6.3
2017-Oct-12 23:30N 29°33' W 095°00'1 3.0
2017-Oct-12 23:00N 29°33' W 095°02'0 0.0
2017-Oct-12 22:30N 29°33' W 095°02'0 0.0
2017-Oct-12 22:00N 29°33' W 095°02'0 0.0
2017-Oct-12 21:30N 29°33' W 095°02'0 0.0
2017-Oct-12 21:00N 29°33' W 095°02'0 0.0
2017-Oct-12 20:30N 29°33' W 095°02'0 0.0
2017-Oct-12 20:00N 29°33' W 095°02'0 0.0
2017-Oct-12 19:30N 29°33' W 095°02'0 0.0
2017-Oct-12 19:00N 29°33' W 095°02'0 0.0
2017-Oct-12 18:30N 29°33' W 095°02'0 0.0
2017-Oct-12 18:00N 29°33' W 095°02'0 0.0
2017-Oct-12 17:30N 29°33' W 095°02'0 0.0
2017-Oct-12 17:00N 29°33' W 095°02'0 0.0
2017-Oct-12 16:30N 29°33' W 095°02'0 0.0
2017-Oct-12 16:00N 29°33' W 095°02'0 0.0
2017-Oct-12 15:30N 29°33' W 095°02'0 0.0
2017-Oct-12 15:00N 29°33' W 095°02'0 0.0
2017-Oct-12 14:30N 29°33' W 095°02'0 0.0
2017-Oct-12 14:00N 29°33' W 095°02'0 0.0
2017-Oct-12 13:30N 29°33' W 095°02'0 0.0
2017-Oct-12 13:00N 29°33' W 095°02'0 0.0
2017-Oct-12 12:30N 29°33' W 095°02'0 0.0
2017-Oct-12 12:00N 29°33' W 095°02'0 0.0
2017-Oct-12 11:30N 29°33' W 095°02'0 0.0
2017-Oct-12 11:00N 29°33' W 095°02'0 0.0
2017-Oct-12 10:30N 29°33' W 095°02'0 0.0
2017-Oct-12 10:00N 29°33' W 095°02'0 0.0
2017-Oct-12 09:30N 29°33' W 095°02'0 0.0
2017-Oct-12 09:00N 29°33' W 095°02'0 0.0
2017-Oct-12 08:30N 29°33' W 095°02'0 0.0
2017-Oct-12 08:00N 29°33' W 095°02'0 0.0
2017-Oct-12 07:30N 29°33' W 095°02'0 0.0
2017-Oct-12 07:00N 29°33' W 095°02'0 0.0
2017-Oct-12 06:30N 29°33' W 095°02'0 0.0
2017-Oct-12 06:00N 29°33' W 095°02'0 0.0
2017-Oct-12 05:30N 29°33' W 095°02'0 0.0
2017-Oct-12 05:00N 29°33' W 095°02'0 0.0
2017-Oct-12 04:30N 29°33' W 095°02'0 0.0
2017-Oct-12 04:00N 29°33' W 095°02'0 0.0
2017-Oct-12 03:30N 29°33' W 095°02'0 0.0
2017-Oct-12 03:00N 29°33' W 095°02'0 0.0
2017-Oct-12 02:30N 29°33' W 095°02'0 0.0
2017-Oct-12 02:00N 29°33' W 095°02'0 0.0
2017-Oct-12 01:30N 29°33' W 095°02'0 0.0
2017-Oct-12 01:00N 29°33' W 095°02'0 0.0
2017-Oct-12 00:30N 29°33' W 095°02'0 0.0
2017-Oct-12 00:00N 29°33' W 095°02'0 0.0
2017-Oct-11 23:30N 29°33' W 095°02'0 0.0
2017-Oct-11 23:00N 29°33' W 095°02'0 0.0
2017-Oct-11 22:30N 29°33' W 095°02'0 0.5
2017-Oct-11 22:00N 29°33' W 095°02'1 2.3
2017-Oct-11 21:30N 29°33' W 095°00'2 4.0
2017-Oct-11 21:00N 29°33' W 094°58'2 4.6
2017-Oct-11 20:30N 29°32' W 094°56'5 2.0
2017-Oct-11 18:10N 29°28' W 094°57'1 3.5
2017-Oct-11 18:00N 29°28' W 094°57'1 0.6
2017-Oct-11 16:50N 29°28' W 094°58'0 0.0
2017-Oct-10 20:47N 29°28' W 094°58'0 0.0
2017-Oct-10 19:44N 29°28' W 094°58'0 0.0
2017-Oct-10 19:30N 29°28' W 094°58'0 0.0
2017-Oct-10 18:47N 29°28' W 094°58'0 0.0
2017-Oct-10 18:20N 29°28' W 094°58'0 0.1
2017-Oct-10 17:57N 29°28' W 094°58'0 0.1
2017-Oct-10 17:29N 29°28' W 094°58'0 0.0
2017-Oct-10 17:00N 29°28' W 094°58'0 0.0
2017-Oct-10 16:30N 29°28' W 094°58'0 0.0
2017-Oct-10 15:58N 29°28' W 094°58'0 0.0
2017-Oct-10 15:26N 29°28' W 094°58'0 0.0
2017-Oct-10 11:50N 29°28' W 094°58'0 0.0
2017-Oct-10 11:29N 29°28' W 094°58'0 0.0
2017-Oct-10 01:13N 29°28' W 094°58'0 0.0
2017-Oct-10 00:58N 29°28' W 094°58'0 0.0
2017-Oct-10 00:27N 29°28' W 094°58'0 0.0
2017-Oct-09 23:55N 29°28' W 094°58'0 1.2
2017-Oct-09 23:30N 29°28' W 094°58'5 3.3
2017-Oct-09 21:50N 29°32' W 094°54'2 6.3
2017-Oct-09 21:30N 29°33' W 094°57'3 6.3
2017-Oct-09 21:00N 29°33' W 095°00'2 4.1
2017-Oct-09 20:30N 29°33' W 095°03'2 3.2
2017-Oct-09 20:00N 29°33' W 095°04'0 0.9
2017-Oct-09 19:30N 29°33' W 095°04'0 0.0
2017-Oct-09 19:00N 29°33' W 095°04'0 0.0
2017-Oct-09 18:30N 29°33' W 095°04'0 0.0
2017-Oct-09 18:00N 29°33' W 095°04'0 0.0
2017-Oct-09 17:30N 29°33' W 095°04'0 0.0
2017-Oct-09 17:00N 29°33' W 095°04'0 0.0
2017-Oct-09 16:30N 29°33' W 095°04'0 0.0
2017-Oct-09 16:00N 29°33' W 095°04'0 0.0
2017-Oct-09 15:30N 29°33' W 095°04'0 0.0
2017-Oct-09 15:00N 29°33' W 095°04'0 0.0
2017-Oct-09 14:30N 29°33' W 095°04'0 0.1
2017-Oct-09 14:00N 29°33' W 095°04'1 1.7
2017-Oct-09 13:30N 29°33' W 095°03'2 4.1
2017-Oct-09 13:00N 29°33' W 095°01'3 6.5
2017-Oct-09 12:30N 29°33' W 094°57'5 2.4
2017-Oct-09 10:33N 29°28' W 094°57'0 5.9
2017-Oct-09 10:30N 29°28' W 094°57'1 1.8
2017-Oct-09 10:00N 29°28' W 094°58'0 0.0
2017-Oct-09 09:30N 29°28' W 094°58'0 0.0
2017-Oct-09 09:00N 29°28' W 094°58'0 0.0
2017-Oct-09 08:30N 29°28' W 094°58'0 0.0
2017-Oct-09 08:00N 29°28' W 094°58'0 0.0
2017-Oct-09 07:30N 29°28' W 094°58'0 0.0
2017-Oct-09 07:00N 29°28' W 094°58'0 0.0
2017-Oct-09 06:30N 29°28' W 094°58'0 0.0
2017-Oct-09 06:00N 29°28' W 094°58'0 0.0
2017-Oct-09 05:30N 29°28' W 094°58'0 0.0
2017-Oct-09 05:00N 29°28' W 094°58'0 0.0
2017-Oct-09 04:30N 29°28' W 094°58'0 0.0
2017-Oct-09 04:00N 29°28' W 094°58'0 0.0
2017-Oct-09 03:30N 29°28' W 094°58'0 0.0
2017-Oct-09 03:00N 29°28' W 094°58'0 0.0
2017-Oct-09 02:30N 29°28' W 094°58'0 0.0
2017-Oct-09 02:00N 29°28' W 094°58'0 0.0
2017-Oct-09 01:30N 29°28' W 094°58'0 0.0
2017-Oct-09 01:00N 29°28' W 094°58'0 0.0
2017-Oct-09 00:30N 29°28' W 094°58'0 0.0
2017-Oct-09 00:00N 29°28' W 094°58'0 0.0
2017-Oct-08 23:30N 29°28' W 094°58'0 0.0
2017-Oct-08 23:00N 29°28' W 094°58'0 0.0
2017-Oct-08 22:30N 29°28' W 094°58'0 0.0
2017-Oct-08 22:00N 29°28' W 094°58'0 0.0
2017-Oct-08 21:29N 29°28' W 094°58'0 0.0
2017-Oct-08 21:00N 29°28' W 094°58'0 0.0
2017-Oct-08 20:30N 29°28' W 094°58'0 0.0
2017-Oct-08 20:00N 29°28' W 094°58'0 0.0
2017-Oct-08 19:30N 29°28' W 094°58'0 0.0
2017-Oct-08 19:00N 29°28' W 094°58'0 0.0
2017-Oct-08 18:30N 29°28' W 094°58'0 0.0
2017-Oct-08 18:00N 29°28' W 094°58'0 0.0
2017-Oct-08 17:30N 29°28' W 094°58'0 0.0
2017-Oct-08 17:00N 29°28' W 094°58'0 0.0
2017-Oct-08 16:30N 29°28' W 094°58'0 0.0
2017-Oct-08 16:00N 29°28' W 094°58'0 0.0
2017-Oct-08 15:30N 29°28' W 094°58'0 0.0
2017-Oct-08 15:00N 29°28' W 094°58'0 0.0
2017-Oct-08 14:30N 29°28' W 094°58'0 0.0
2017-Oct-08 14:00N 29°28' W 094°58'0 0.0
2017-Oct-08 13:30N 29°28' W 094°58'0 0.0
2017-Oct-08 13:00N 29°28' W 094°58'0 0.0
2017-Oct-08 12:30N 29°28' W 094°58'0 0.0
2017-Oct-08 12:00N 29°28' W 094°58'0 0.0
2017-Oct-08 11:30N 29°28' W 094°58'0 0.0
2017-Oct-08 11:00N 29°28' W 094°58'0 0.0
2017-Oct-08 10:30N 29°28' W 094°58'0 0.0
2017-Oct-08 10:00N 29°28' W 094°58'0 0.0
2017-Oct-08 09:30N 29°28' W 094°58'0 0.0
2017-Oct-08 09:00N 29°28' W 094°58'0 0.0
2017-Oct-08 08:30N 29°28' W 094°58'0 0.0
2017-Oct-08 08:00N 29°28' W 094°58'0 0.0
2017-Oct-08 07:30N 29°28' W 094°58'0 0.0
2017-Oct-08 07:00N 29°28' W 094°58'0 0.0
2017-Oct-08 06:30N 29°28' W 094°58'0 0.0
2017-Oct-08 06:00N 29°28' W 094°58'0 0.0
2017-Oct-08 05:30N 29°28' W 094°58'0 0.0
2017-Oct-08 05:00N 29°28' W 094°58'0 0.0
2017-Oct-08 04:30N 29°28' W 094°58'0 0.0
2017-Oct-08 04:00N 29°28' W 094°58'0 0.0
2017-Oct-08 03:30N 29°28' W 094°58'0 0.0
2017-Oct-08 03:00N 29°28' W 094°58'0 0.0
2017-Oct-08 02:30N 29°28' W 094°58'0 0.0
2017-Oct-08 02:00N 29°28' W 094°58'0 0.0
2017-Oct-08 01:30N 29°28' W 094°58'0 0.0
2017-Oct-08 01:00N 29°28' W 094°58'0 0.0
2017-Oct-08 00:30N 29°28' W 094°58'0 0.0
2017-Oct-08 00:00N 29°28' W 094°58'0 0.0
2017-Oct-07 23:30N 29°28' W 094°58'0 0.0
2017-Oct-07 23:00N 29°28' W 094°58'0 0.0
2017-Oct-07 22:30N 29°28' W 094°58'0 0.0
2017-Oct-07 22:00N 29°28' W 094°58'0 0.0
2017-Oct-07 21:30N 29°28' W 094°58'0 0.0
2017-Oct-07 21:00N 29°28' W 094°58'0 0.0
2017-Oct-07 09:42N 29°28' W 094°58'0 0.0
2017-Oct-07 09:18N 29°28' W 094°58'  

Dump ship's entire track history